首页
METAR-TAF:

METAR-TAF

机场 :

斯瓦尔巴朗伊尔机场

朗伊爾城, 挪威

纬度: 78-15N, 经度: 015-28E, 海拔: 2米

当前天气观测

该预报发布于57分钟前的08:50 UTC
风速4节,风向东南,在西南之间变化
温度 9°C
湿度 66%
气压 1023 hPa
能见度10公里或以上
阴天层高于2800英尺

METAR: ENSB 120850Z 13004KT 090V230 9999 OVC028 09/03 Q1023 NOSIG RMK WIND 1400FT 23004KT

时间: 11:47 (09:47 UTC)

预报

预报有效从12日的 06点(UTC)到 13日的 06点(UTC)
风速8节,风向东转东南
能见度10公里或以上
少量云层高于1200英尺
多云层高于3000英尺

TAF: ENSB 1206/1306 12008KT 9999 FEW012 BKN030

超过4000个机场的气象观测和天气预报(METAR&TAF报告)。

可查询的气象台以黄色和红色小点在地图上表示。

将鼠标移到小点上方,可查看气象台名称。

然后点击查看天气观测和预报。

如需切换地图:点击带黑十字的绿色按钮放大地图;点击带横线的绿色按钮缩小地图;或者点击绿色箭头查看邻近地区的地图。


METAR-TAF: